Time;durP1;ratioP1;P1;durP2;ratioP2;P2;SDS_P1;SDS_P2;PMS_P1;PMS_P2;Temp;Humidity;BMP_temperature;BMP_pressure;BME280_temperature;BME280_humidity;BME280_pressure;Samples;Min_cycle;Max_cycle;Signal;HPM_P1;HPM_P2
2023/04/13 00:00:15;;;;;;;11.43;5.80;;;;;;;9.37;100.00;97007.22;3241088;22;20138;-89
2023/04/13 00:01:51;;;;;;;9.73;5.43;;;;;;;9.38;100.00;97011.53;3240160;22;20016;-89
2023/04/13 00:03:10;;;;;;;9.20;5.47;;;;;;;9.05;100.00;97009.53;3240193;22;20030;-89
2023/04/13 00:04:29;;;;;;;11.13;6.25;;;;;;;9.20;100.00;97005.38;3224051;23;20423;-90
2023/04/13 00:05:46;;;;;;;9.27;5.70;;;;;;;8.99;100.00;97015.03;3230601;22;20397;-89
2023/04/13 00:07:02;;;;;;;10.27;5.82;;;;;;;9.04;100.00;97008.69;3241158;22;20463;-88
2023/04/13 00:08:21;;;;;;;10.25;6.18;;;;;;;8.91;100.00;97010.16;3241254;22;20023;-89
2023/04/13 00:09:37;;;;;;;9.32;6.15;;;;;;;8.54;100.00;97004.78;3238593;22;20094;-88
2023/04/13 00:10:53;;;;;;;10.07;5.80;;;;;;;8.49;100.00;97006.69;3240253;22;20093;-89
2023/04/13 00:12:09;;;;;;;15.02;6.18;;;;;;;8.73;100.00;97010.06;3241781;22;20039;-88
2023/04/13 00:13:25;;;;;;;10.40;6.05;;;;;;;8.89;100.00;96999.78;3241246;22;20023;-88
2023/04/13 00:14:41;;;;;;;9.73;5.60;;;;;;;8.96;100.00;97010.78;3241114;22;20074;-88
2023/04/13 00:15:58;;;;;;;11.10;5.93;;;;;;;9.15;100.00;97008.19;3240721;22;20023;-88
2023/04/13 00:17:14;;;;;;;9.85;5.22;;;;;;;9.25;100.00;97010.41;3240824;22;20102;-88
2023/04/13 00:18:30;;;;;;;9.85;4.68;;;;;;;9.33;100.00;97001.28;3240327;22;20028;-89
2023/04/13 00:19:49;;;;;;;8.52;4.60;;;;;;;9.46;100.00;97006.78;3241394;22;20360;-90
2023/04/13 00:21:05;;;;;;;8.27;4.53;;;;;;;9.44;100.00;97003.41;3241070;22;20081;-88
2023/04/13 00:22:20;;;;;;;7.43;4.20;;;;;;;9.41;100.00;97006.16;3241072;22;20023;-88
2023/04/13 00:23:36;;;;;;;6.80;4.20;;;;;;;9.36;100.00;97005.53;3241112;22;20400;-88
2023/04/13 00:24:54;;;;;;;7.20;3.38;;;;;;;9.42;100.00;97000.00;3241593;22;20073;-88
2023/04/13 00:26:09;;;;;;;6.43;3.85;;;;;;;9.50;100.00;96991.81;3240029;22;20069;-89
2023/04/13 00:27:26;;;;;;;5.75;3.53;;;;;;;9.50;100.00;96999.66;3240920;22;20024;-88
2023/04/13 00:28:42;;;;;;;5.95;3.25;;;;;;;9.66;100.00;96993.69;3240734;22;20099;-89
2023/04/13 00:29:57;;;;;;;4.97;3.13;;;;;;;9.51;100.00;96990.91;3240964;22;20111;-89
2023/04/13 00:31:13;;;;;;;5.88;3.10;;;;;;;9.72;100.00;96989.03;3240036;22;20038;-88
2023/04/13 00:32:29;;;;;;;4.75;3.00;;;;;;;9.57;100.00;96990.63;3241008;22;20139;-90
2023/04/13 00:33:44;;;;;;;5.13;2.83;;;;;;;9.73;100.00;96993.34;3223641;23;20024;-87
2023/04/13 00:35:00;;;;;;;4.55;2.60;;;;;;;9.79;100.00;96984.34;3230336;22;20031;-87
2023/04/13 00:36:16;;;;;;;3.85;2.70;;;;;;;9.81;100.00;96979.06;3240305;22;20073;-88
2023/04/13 00:37:32;;;;;;;4.72;2.50;;;;;;;9.96;100.00;96980.94;3240321;22;20085;-87
2023/04/13 00:38:47;;;;;;;5.28;3.05;;;;;;;10.12;100.00;96977.53;3242145;22;20081;-88
2023/04/13 00:40:06;;;;;;;4.70;2.85;;;;;;;10.16;100.00;96982.56;3241411;22;20351;-86
2023/04/13 00:41:25;;;;;;;6.35;2.63;;;;;;;10.13;100.00;96977.47;3241449;22;20024;-88
2023/04/13 00:42:45;;;;;;;4.63;2.95;;;;;;;10.15;100.00;96972.16;3240200;22;20129;-86
2023/04/13 00:44:01;;;;;;;4.82;2.65;;;;;;;10.06;100.00;96980.44;3224246;23;20024;-86
2023/04/13 00:45:16;;;;;;;7.18;3.22;;;;;;;10.16;100.00;96977.31;3231640;22;20023;-88
2023/04/13 00:46:33;;;;;;;4.57;3.00;;;;;;;10.09;100.00;96975.91;3241018;22;20417;-88
2023/04/13 00:47:50;;;;;;;5.68;2.67;;;;;;;10.09;100.00;96982.94;3240237;22;20019;-88
2023/04/13 00:49:06;;;;;;;3.85;2.80;;;;;;;10.15;100.00;96980.88;3242222;22;20019;-88
2023/04/13 00:50:21;;;;;;;5.72;2.75;;;;;;;10.01;100.00;96992.00;3240965;22;20482;-87
2023/04/13 00:51:37;;;;;;;5.18;2.92;;;;;;;10.08;100.00;96994.31;3241434;22;20047;-87
2023/04/13 00:52:53;;;;;;;5.88;2.72;;;;;;;10.01;100.00;96991.16;3240304;22;20154;-87
2023/04/13 00:54:12;;;;;;;5.35;2.63;;;;;;;10.16;100.00;97000.00;3240215;22;20024;-87
2023/04/13 00:55:28;;;;;;;4.90;2.85;;;;;;;10.55;100.00;97003.34;3240286;22;20020;-87
2023/04/13 00:56:44;;;;;;;5.28;3.28;;;;;;;10.22;100.00;96991.00;3240645;22;20023;-87
2023/04/13 00:58:00;;;;;;;4.07;2.63;;;;;;;10.20;100.00;96998.94;3240105;22;20034;-87
2023/04/13 00:59:16;;;;;;;5.72;3.15;;;;;;;10.36;100.00;96996.38;3240918;22;20020;-87
2023/04/13 01:00:32;;;;;;;4.55;2.75;;;;;;;10.27;100.00;97002.09;3240484;22;20095;-86
2023/04/13 01:01:55;;;;;;;4.43;2.80;;;;;;;10.40;100.00;96997.09;3240632;22;20024;-86
2023/04/13 01:03:11;;;;;;;2.97;2.35;;;;;;;10.41;100.00;96996.19;3240455;22;20026;-86
2023/04/13 01:04:29;;;;;;;4.57;2.85;;;;;;;10.32;100.00;96998.31;3240738;22;20027;-86
2023/04/13 01:05:51;;;;;;;3.97;2.85;;;;;;;10.30;100.00;96999.31;3240295;22;20415;-87
2023/04/13 01:07:06;;;;;;;5.43;2.88;;;;;;;10.30;100.00;96997.53;3240804;22;20027;-87
2023/04/13 01:08:30;;;;;;;4.53;2.88;;;;;;;10.03;100.00;97008.44;3223597;23;20464;-86
2023/04/13 01:09:52;;;;;;;4.30;2.92;;;;;;;9.88;100.00;97012.66;3231842;22;20019;-86
2023/04/13 01:11:38;;;;;;;5.30;2.90;;;;;;;9.86;100.00;97011.91;3240377;22;20715;-87
2023/04/13 01:13:44;;;;;;;4.57;2.55;;;;;;;9.73;100.00;97006.41;3240758;22;20043;-87
2023/04/13 01:15:08;;;;;;;4.00;2.60;;;;;;;9.75;100.00;97009.78;3173230;23;20022;-87
2023/04/13 01:16:29;;;;;;;5.10;3.10;;;;;;;9.72;100.00;97012.56;3240334;22;20849;-86
2023/04/13 01:17:52;;;;;;;3.92;2.60;;;;;;;9.83;100.00;97005.97;3241270;22;20051;-87
2023/04/13 01:19:19;;;;;;;5.15;2.75;;;;;;;9.90;100.00;97009.97;3240469;22;20468;-87
2023/04/13 01:20:43;;;;;;;3.80;2.70;;;;;;;9.84;100.00;97002.44;3240206;22;20032;-87
2023/04/13 01:22:00;;;;;;;4.45;2.75;;;;;;;9.63;100.00;97020.81;3240316;22;20377;-87
2023/04/13 01:23:26;;;;;;;5.65;2.88;;;;;;;9.95;100.00;97009.75;3240498;22;20471;-87
2023/04/13 01:25:13;;;;;;;3.95;2.58;;;;;;;9.95;100.00;97010.59;3240892;22;20411;-87
2023/04/13 01:26:42;;;;;;;5.38;2.38;;;;;;;9.94;100.00;97010.66;3241557;22;20089;-87
2023/04/13 01:28:07;;;;;;;4.38;2.88;;;;;;;9.97;100.00;97010.50;3239754;22;20075;-87
2023/04/13 01:29:26;;;;;;;3.80;2.30;;;;;;;10.04;100.00;97014.53;3240310;22;20024;-86
2023/04/13 01:30:43;;;;;;;4.07;2.58;;;;;;;10.12;100.00;97017.59;3240010;22;20334;-86
2023/04/13 01:32:00;;;;;;;5.13;2.83;;;;;;;10.06;100.00;97014.44;3240471;22;20098;-87
2023/04/13 01:33:15;;;;;;;4.47;2.80;;;;;;;10.18;100.00;97021.69;3240114;22;20020;-86
2023/04/13 01:34:31;;;;;;;3.97;2.88;;;;;;;10.14;100.00;97026.25;3240809;22;20024;-86
2023/04/13 01:35:49;;;;;;;4.57;2.80;;;;;;;10.14;100.00;97022.78;3241075;22;20019;-87
2023/04/13 01:37:05;;;;;;;5.47;2.78;;;;;;;10.08;100.00;97020.47;3241511;22;20019;-87
2023/04/13 01:38:24;;;;;;;6.50;2.60;;;;;;;10.13;100.00;97024.56;3222926;23;20020;-87
2023/04/13 01:39:39;;;;;;;3.60;2.55;;;;;;;10.32;100.00;97024.47;3215009;23;20020;-87
2023/04/13 01:40:56;;;;;;;3.70;2.65;;;;;;;10.27;100.00;97018.63;3229800;22;20030;-89
2023/04/13 01:42:11;;;;;;;5.15;3.00;;;;;;;10.44;100.00;97022.19;3240617;22;20042;-88
2023/04/13 01:43:27;;;;;;;5.13;2.80;;;;;;;10.47;100.00;97016.81;3240047;22;20016;-87
2023/04/13 01:44:44;;;;;;;3.28;2.55;;;;;;;10.48;100.00;97020.28;3240548;22;20408;-86
2023/04/13 01:46:03;;;;;;;3.95;2.60;;;;;;;10.34;100.00;97010.47;3223185;23;20574;-87
2023/04/13 01:47:24;;;;;;;3.83;2.50;;;;;;;10.19;100.00;97023.38;3231006;22;20023;-86
2023/04/13 01:48:50;;;;;;;4.95;2.70;;;;;;;10.23;100.00;97021.47;3240116;22;20024;-86
2023/04/13 01:50:14;;;;;;;3.83;2.55;;;;;;;10.09;100.00;97024.78;3240391;22;20486;-86
2023/04/13 01:51:33;;;;;;;3.20;2.40;;;;;;;10.04;100.00;97025.00;3239933;22;20024;-85
2023/04/13 01:52:50;;;;;;;4.88;2.72;;;;;;;10.29;100.00;97024.63;3240861;22;20715;-86
2023/04/13 01:54:11;;;;;;;4.55;2.58;;;;;;;10.39;100.00;97022.38;3240245;22;20020;-86
2023/04/13 01:55:28;;;;;;;4.32;2.20;;;;;;;10.24;100.00;97031.00;3241111;22;20023;-87
2023/04/13 01:56:44;;;;;;;3.05;2.25;;;;;;;10.15;100.00;97021.84;3240081;22;20024;-86
2023/04/13 01:58:00;;;;;;;3.15;2.30;;;;;;;10.27;100.00;97016.00;3240435;22;20024;-86
2023/04/13 01:59:16;;;;;;;3.38;2.33;;;;;;;10.49;100.00;97020.22;3223301;23;20351;-86
2023/04/13 02:00:36;;;;;;;2.72;2.28;;;;;;;10.43;100.00;97020.50;3230268;22;20031;-87
2023/04/13 02:01:53;;;;;;;3.28;2.28;;;;;;;10.35;100.00;97027.88;3240042;22;20098;-87
2023/04/13 02:03:10;;;;;;;3.65;2.17;;;;;;;10.47;100.00;97022.03;3240549;22;20045;-87
2023/04/13 02:04:27;;;;;;;4.22;2.00;;;;;;;10.35;100.00;97025.25;3239196;22;20134;-86
2023/04/13 02:05:42;;;;;;;4.28;2.45;;;;;;;10.41;100.00;97023.22;3241669;22;20457;-87
2023/04/13 02:06:58;;;;;;;3.60;2.00;;;;;;;10.15;100.00;97029.69;3242176;22;20070;-86
2023/04/13 02:08:14;;;;;;;3.17;2.30;;;;;;;9.82;100.00;97026.03;3241905;22;20024;-86
2023/04/13 02:09:29;;;;;;;2.33;1.92;;;;;;;9.96;100.00;97021.91;3241729;22;20482;-86
2023/04/13 02:10:45;;;;;;;3.22;1.67;;;;;;;9.95;100.00;97026.28;3241850;22;20153;-86
2023/04/13 02:12:01;;;;;;;3.17;1.88;;;;;;;9.93;100.00;97028.13;3241175;22;20027;-87
2023/04/13 02:13:16;;;;;;;3.78;2.20;;;;;;;9.84;100.00;97021.56;3241328;22;20023;-87
2023/04/13 02:14:32;;;;;;;2.92;2.25;;;;;;;10.00;100.00;97026.06;3224547;23;20024;-86
2023/04/13 02:15:48;;;;;;;2.80;2.20;;;;;;;10.04;100.00;97022.38;3231147;22;20715;-84
2023/04/13 02:17:03;;;;;;;2.95;2.10;;;;;;;10.00;100.00;97026.91;3241350;22;20451;-86
2023/04/13 02:18:19;;;;;;;3.58;2.35;;;;;;;9.89;100.00;97023.97;3240857;22;20078;-86
2023/04/13 02:19:35;;;;;;;2.80;2.20;;;;;;;9.97;100.00;97028.81;3242743;22;20030;-86
2023/04/13 02:21:06;;;;;;;3.28;2.42;;;;;;;10.12;100.00;97027.22;3239788;22;20023;-87
2023/04/13 02:22:23;;;;;;;3.60;2.30;;;;;;;10.01;100.00;97025.97;3240066;22;20074;-87
2023/04/13 02:23:40;;;;;;;5.03;2.50;;;;;;;9.87;100.00;97029.28;3241442;22;20407;-87
2023/04/13 02:24:56;;;;;;;3.78;2.80;;;;;;;9.94;100.00;97029.84;3241259;22;20102;-86
2023/04/13 02:26:13;;;;;;;5.00;2.67;;;;;;;9.85;100.00;97031.13;3241096;22;20016;-86
2023/04/13 02:27:29;;;;;;;3.30;2.22;;;;;;;9.73;100.00;97043.00;3241900;22;20028;-86
2023/04/13 02:28:45;;;;;;;3.08;2.00;;;;;;;9.92;100.00;97026.44;3241279;22;20019;-87
2023/04/13 02:30:05;;;;;;;2.75;2.22;;;;;;;9.85;100.00;97019.81;3241446;22;20103;-87
2023/04/13 02:31:22;;;;;;;4.75;2.45;;;;;;;9.94;100.00;97023.75;3240111;22;20023;-86
2023/04/13 02:32:40;;;;;;;2.88;2.17;;;;;;;9.76;100.00;97021.09;3241273;22;20047;-86
2023/04/13 02:33:57;;;;;;;3.65;2.40;;;;;;;9.75;100.00;97022.84;3241257;22;20440;-86
2023/04/13 02:35:13;;;;;;;2.70;2.05;;;;;;;9.71;100.00;97029.16;3224432;23;20409;-86
2023/04/13 02:36:29;;;;;;;4.65;2.20;;;;;;;9.70;100.00;97031.81;3231863;22;20448;-86
2023/04/13 02:37:45;;;;;;;3.03;2.13;;;;;;;9.68;100.00;97042.38;3242151;22;20015;-86
2023/04/13 02:39:01;;;;;;;3.40;2.35;;;;;;;9.89;100.00;97034.41;3241332;22;20074;-87
2023/04/13 02:40:18;;;;;;;3.05;2.22;;;;;;;9.64;100.00;97039.97;3242070;22;20016;-86
2023/04/13 02:41:33;;;;;;;2.47;2.00;;;;;;;9.62;100.00;97040.03;3240811;22;20103;-86
2023/04/13 02:42:49;;;;;;;2.50;2.10;;;;;;;9.64;100.00;97042.59;3241799;22;20027;-86
2023/04/13 02:44:05;;;;;;;3.53;1.98;;;;;;;9.55;100.00;97052.53;3241524;22;20019;-87
2023/04/13 02:45:21;;;;;;;3.10;2.60;;;;;;;9.33;100.00;97048.31;3241139;22;20039;-88
2023/04/13 02:46:37;;;;;;;3.45;2.20;;;;;;;9.49;100.00;97046.75;3241230;22;20023;-87
2023/04/13 02:47:52;;;;;;;2.55;2.00;;;;;;;9.56;100.00;97050.78;3241134;22;20015;-87
2023/04/13 02:49:08;;;;;;;3.00;2.00;;;;;;;9.58;100.00;97052.41;3241149;22;20030;-86
2023/04/13 02:50:23;;;;;;;3.28;2.15;;;;;;;9.55;100.00;97049.09;3225571;23;20012;-86
2023/04/13 02:51:39;;;;;;;2.55;2.22;;;;;;;9.52;100.00;97046.63;3231015;22;20020;-86
2023/04/13 02:52:55;;;;;;;3.25;2.25;;;;;;;9.51;100.00;97045.75;3224451;23;20028;-84
2023/04/13 02:54:10;;;;;;;4.57;2.80;;;;;;;9.47;100.00;97045.03;3231990;22;20019;-86
2023/04/13 02:55:26;;;;;;;4.97;2.55;;;;;;;9.37;100.00;97045.56;3242139;22;20024;-86
2023/04/13 02:56:43;;;;;;;4.15;2.85;;;;;;;9.57;100.00;97047.25;3241866;22;20066;-88
2023/04/13 02:57:59;;;;;;;4.15;2.20;;;;;;;9.49;100.00;97045.00;3241089;22;20098;-87
2023/04/13 02:59:15;;;;;;;5.05;2.60;;;;;;;9.49;100.00;97045.00;3241803;22;20082;-87
2023/04/13 03:00:31;;;;;;;4.00;2.50;;;;;;;9.41;100.00;97041.88;3241716;22;20019;-86
2023/04/13 03:01:47;;;;;;;2.47;1.63;;;;;;;9.27;100.00;97040.72;3241862;22;20020;-88
2023/04/13 03:03:05;;;;;;;2.20;1.50;;;;;;;9.33;100.00;97039.63;3241359;22;20529;-86
2023/04/13 03:04:20;;;;;;;2.58;2.00;;;;;;;9.34;100.00;97043.91;3241697;22;20243;-87
2023/04/13 03:05:37;;;;;;;3.00;1.88;;;;;;;9.38;100.00;97042.88;3240771;22;20023;-87
2023/04/13 03:06:53;;;;;;;2.60;1.40;;;;;;;9.29;100.00;97049.38;3241115;22;20019;-86
2023/04/13 03:08:09;;;;;;;2.78;1.63;;;;;;;9.38;100.00;97042.88;3241147;22;20023;-87
2023/04/13 03:09:25;;;;;;;3.88;1.83;;;;;;;9.46;100.00;97045.13;3241232;22;20471;-86
2023/04/13 03:10:42;;;;;;;2.58;2.00;;;;;;;9.58;100.00;97054.16;3240941;22;20023;-86
2023/04/13 03:11:57;;;;;;;2.30;1.52;;;;;;;9.24;100.00;97055.72;3241526;22;20521;-86
2023/04/13 03:13:13;;;;;;;3.03;2.38;;;;;;;9.56;100.00;97048.16;3241183;22;20016;-87
2023/04/13 03:14:28;;;;;;;3.55;2.20;;;;;;;9.89;100.00;97034.41;3241373;22;20321;-86
2023/04/13 03:15:44;;;;;;;3.30;2.00;;;;;;;9.75;100.00;97046.38;3241534;22;20023;-88
2023/04/13 03:17:00;;;;;;;2.70;2.10;;;;;;;9.77;100.00;97043.69;3240990;22;20082;-87
2023/04/13 03:18:16;;;;;;;3.85;2.22;;;;;;;9.67;100.00;97056.34;3240723;22;20189;-86
2023/04/13 03:19:32;;;;;;;2.45;1.90;;;;;;;9.55;100.00;97054.31;3241247;22;20028;-88
2023/04/13 03:20:47;;;;;;;3.08;2.03;;;;;;;9.50;100.00;97066.72;3240562;22;20031;-87
2023/04/13 03:22:03;;;;;;;4.40;2.15;;;;;;;9.42;100.00;97072.28;3241279;22;20027;-85
2023/04/13 03:23:18;;;;;;;3.90;2.17;;;;;;;9.42;100.00;97075.78;3241000;22;20020;-88
2023/04/13 03:24:34;;;;;;;2.20;1.75;;;;;;;9.55;100.00;97068.22;3241048;22;20031;-86
2023/04/13 03:25:50;;;;;;;3.92;2.05;;;;;;;9.47;100.00;97070.34;3241083;22;20094;-89
2023/04/13 03:27:06;;;;;;;2.50;1.65;;;;;;;9.42;100.00;97067.94;3240521;22;20020;-87
2023/04/13 03:28:22;;;;;;;3.63;1.88;;;;;;;9.86;100.00;97061.56;3240745;22;20024;-86
2023/04/13 03:29:37;;;;;;;2.75;1.92;;;;;;;9.59;100.00;97061.94;3240462;22;20381;-86
2023/04/13 03:30:53;;;;;;;4.00;1.52;;;;;;;9.67;100.00;97056.34;3241215;22;20046;-88
2023/04/13 03:32:08;;;;;;;1.38;1.27;;;;;;;9.48;100.00;97056.34;3240405;22;20405;-87
2023/04/13 03:33:24;;;;;;;2.30;1.70;;;;;;;9.66;100.00;97066.88;3240789;22;20020;-86
2023/04/13 03:34:42;;;;;;;2.17;1.40;;;;;;;9.69;100.00;97064.97;3223863;23;20024;-88
2023/04/13 03:35:58;;;;;;;2.30;1.30;;;;;;;9.49;100.00;97071.13;3231690;22;20015;-87
2023/04/13 03:37:14;;;;;;;2.00;1.30;;;;;;;9.54;100.00;97076.13;3236817;22;20149;-90
2023/04/13 03:38:29;;;;;;;2.20;1.70;;;;;;;9.35;100.00;97073.50;3241237;22;20031;-87
2023/04/13 03:39:45;;;;;;;3.03;1.60;;;;;;;9.35;100.00;97079.56;3241437;22;20023;-87
2023/04/13 03:41:01;;;;;;;1.35;0.90;;;;;;;9.33;100.00;97079.66;3241390;22;20506;-87
2023/04/13 03:42:16;;;;;;;1.80;1.30;;;;;;;9.37;100.00;97074.28;3240290;22;20019;-87
2023/04/13 03:43:32;;;;;;;1.55;1.02;;;;;;;9.29;100.00;97085.06;3241033;22;20076;-88
2023/04/13 03:44:48;;;;;;;3.67;1.58;;;;;;;9.40;100.00;97077.59;3240911;22;20047;-94
2023/04/13 03:46:03;;;;;;;2.28;1.23;;;;;;;9.29;100.00;97080.72;3241592;22;20023;-89
2023/04/13 03:47:19;;;;;;;1.52;1.00;;;;;;;9.42;100.00;97073.16;3240481;22;20031;-90
2023/04/13 03:48:35;;;;;;;2.25;1.10;;;;;;;9.51;100.00;97079.72;3241027;22;20083;-86
2023/04/13 03:49:51;;;;;;;1.30;0.80;;;;;;;9.25;100.00;97078.31;3242093;22;20011;-89
2023/04/13 03:51:07;;;;;;;1.25;1.15;;;;;;;9.32;100.00;97083.19;3242235;22;20023;-92
2023/04/13 03:52:22;;;;;;;1.00;0.90;;;;;;;9.23;100.00;97080.13;3243099;22;20035;-87
2023/04/13 03:53:38;;;;;;;2.15;0.80;;;;;;;9.28;100.00;97083.38;3240413;22;20020;-87
2023/04/13 03:54:54;;;;;;;2.15;1.05;;;;;;;9.19;100.00;97079.41;3242041;22;20016;-87
2023/04/13 03:56:09;;;;;;;1.23;0.95;;;;;;;9.14;100.00;97074.41;3240524;22;20440;-88
2023/04/13 03:57:26;;;;;;;0.93;0.70;;;;;;;9.33;100.00;97081.41;3241833;22;20058;-86
2023/04/13 03:58:41;;;;;;;1.13;0.70;;;;;;;9.13;100.00;97084.91;3241466;22;20019;-91
2023/04/13 03:59:57;;;;;;;1.35;1.05;;;;;;;9.03;100.00;97081.84;3243041;22;20019;-88
2023/04/13 04:01:13;;;;;;;0.95;0.50;;;;;;;9.23;100.00;97090.59;3238893;22;20024;-87
2023/04/13 04:02:28;;;;;;;1.42;0.90;;;;;;;9.19;100.00;97090.69;3225132;23;20043;-90
2023/04/13 04:03:44;;;;;;;4.43;1.23;;;;;;;9.13;100.00;97092.72;3230293;22;20509;-86
2023/04/13 04:05:00;;;;;;;1.52;0.90;;;;;;;9.24;100.00;97097.50;3242174;22;20035;-92
2023/04/13 04:06:15;;;;;;;1.08;0.85;;;;;;;9.22;100.00;97094.09;3240142;22;20020;-92
2023/04/13 04:07:32;;;;;;;1.38;0.55;;;;;;;9.28;100.00;97091.22;3242763;22;20047;-91
2023/04/13 04:08:48;;;;;;;0.82;0.80;;;;;;;9.24;100.00;97087.88;3223105;23;20076;-91
2023/04/13 04:10:04;;;;;;;1.55;0.60;;;;;;;9.09;100.00;97083.34;3232379;22;20070;-91
2023/04/13 04:11:21;;;;;;;0.60;0.60;;;;;;;9.27;100.00;97084.31;3241171;22;20020;-91
2023/04/13 04:12:36;;;;;;;2.50;0.70;;;;;;;9.35;100.00;97087.41;3241973;22;20024;-91
2023/04/13 04:13:53;;;;;;;1.05;0.80;;;;;;;9.49;100.00;97089.41;3240268;22;20325;-91
2023/04/13 04:15:09;;;;;;;1.80;0.80;;;;;;;9.46;100.00;97086.94;3242405;22;20589;-91
2023/04/13 04:16:24;;;;;;;1.13;0.80;;;;;;;9.28;100.00;97094.66;3240622;22;20085;-91
2023/04/13 04:17:40;;;;;;;0.90;0.70;;;;;;;9.23;100.00;97103.63;3241210;22;20046;-90
2023/04/13 04:18:56;;;;;;;0.63;0.52;;;;;;;9.09;100.00;97099.88;3241572;22;20039;-91
2023/04/13 04:20:12;;;;;;;1.05;0.80;;;;;;;9.13;100.00;97104.03;3240085;22;20035;-91
2023/04/13 04:21:35;;;;;;;1.35;0.80;;;;;;;9.14;100.00;97104.88;3224169;23;20066;-89
2023/04/13 04:22:52;;;;;;;1.45;0.82;;;;;;;9.25;100.00;97105.25;3231448;22;20110;-90
2023/04/13 04:24:07;;;;;;;1.13;0.52;;;;;;;9.19;100.00;97108.97;3223904;23;20488;-91
2023/04/13 04:25:26;;;;;;;0.60;0.60;;;;;;;9.15;100.00;97104.81;3230190;22;20020;-90
2023/04/13 04:26:42;;;;;;;1.92;0.60;;;;;;;9.26;100.00;97116.56;3240864;22;20024;-90
2023/04/13 04:28:01;;;;;;;0.75;0.60;;;;;;;9.09;100.00;97118.16;3240132;22;20032;-90
2023/04/13 04:29:20;;;;;;;1.08;0.77;;;;;;;9.23;100.00;97114.91;3240881;22;20097;-91
2023/04/13 04:30:36;;;;;;;1.73;1.00;;;;;;;8.98;100.00;97117.75;3239917;22;20134;-90
2023/04/13 04:31:52;;;;;;;1.83;0.95;;;;;;;8.95;100.00;97118.72;3242783;22;20019;-90
2023/04/13 04:33:07;;;;;;;0.80;0.70;;;;;;;8.96;100.00;97115.19;3223409;23;20020;-91
2023/04/13 04:34:23;;;;;;;1.45;0.70;;;;;;;9.00;100.00;97118.53;3225121;23;20027;-91
2023/04/13 04:35:48;;;;;;;0.75;0.60;;;;;;;9.03;100.00;97115.78;3231284;22;20015;-90
2023/04/13 04:37:04;;;;;;;0.50;0.45;;;;;;;8.85;100.00;97122.63;3242480;22;20023;-91
2023/04/13 04:38:22;;;;;;;0.20;0.20;;;;;;;8.76;100.00;97118.66;3221127;23;20476;-89
2023/04/13 04:39:43;;;;;;;0.40;0.40;;;;;;;8.77;100.00;97125.56;3234023;22;20145;-92
2023/04/13 04:41:00;;;;;;;0.40;0.32;;;;;;;8.87;100.00;97126.88;3241514;22;20020;-89
2023/04/13 04:42:17;;;;;;;1.10;0.60;;;;;;;8.69;100.00;97136.34;3241108;22;20023;-90
2023/04/13 04:43:34;;;;;;;0.30;0.30;;;;;;;8.72;100.00;97141.41;3239599;22;20410;-89
2023/04/13 04:44:50;;;;;;;0.25;0.25;;;;;;;8.60;100.00;97153.22;3240572;22;20015;-90
2023/04/13 04:46:07;;;;;;;0.30;0.30;;;;;;;8.64;100.00;97153.09;3240353;22;20054;-91
2023/04/13 04:47:23;;;;;;;0.45;0.30;;;;;;;8.64;100.00;97160.91;3223903;23;20574;-91
2023/04/13 04:48:38;;;;;;;0.20;0.10;;;;;;;8.58;100.00;97162.88;3229982;22;20038;-90
2023/04/13 04:49:56;;;;;;;0.40;0.30;;;;;;;8.67;100.00;97166.84;3240448;22;20216;-88
2023/04/13 04:51:12;;;;;;;0.20;0.10;;;;;;;8.55;100.00;97157.78;3240072;22;20027;-89
2023/04/13 04:52:31;;;;;;;0.30;0.30;;;;;;;8.64;100.00;97163.53;3241658;22;20026;-89
2023/04/13 04:53:47;;;;;;;0.63;0.40;;;;;;;8.62;100.00;97161.81;3240675;22;20042;-88
2023/04/13 04:55:05;;;;;;;0.22;0.22;;;;;;;8.55;100.00;97170.81;3241187;22;20023;-89
2023/04/13 04:56:20;;;;;;;0.80;0.35;;;;;;;8.55;100.00;97170.81;3237138;22;20026;-91
2023/04/13 04:57:36;;;;;;;0.35;0.30;;;;;;;8.40;100.00;97180.06;3240614;22;20118;-90
2023/04/13 04:58:52;;;;;;;0.30;0.30;;;;;;;8.48;100.00;97175.41;3206922;23;20421;-89
2023/04/13 05:00:17;;;;;;;2.35;0.60;;;;;;;8.73;100.00;97176.19;3214429;23;20019;-89
2023/04/13 05:01:33;;;;;;;0.20;0.20;;;;;;;8.65;100.00;97171.28;3231789;22;20455;-89
2023/04/13 05:02:49;;;;;;;1.83;0.50;;;;;;;8.38;100.00;97170.59;3240888;22;20490;-88
2023/04/13 05:04:06;;;;;;;0.88;0.30;;;;;;;8.51;100.00;97184.88;3238455;22;20019;-89
2023/04/13 05:05:22;;;;;;;0.50;0.40;;;;;;;8.50;100.00;97191.00;3240284;22;20047;-89
2023/04/13 05:06:39;;;;;;;0.40;0.40;;;;;;;8.53;100.00;97184.84;3240303;22;20020;-89
2023/04/13 05:07:55;;;;;;;0.95;0.30;;;;;;;8.61;100.00;97180.16;3239506;22;20038;-88
2023/04/13 05:09:13;;;;;;;0.50;0.50;;;;;;;8.79;100.00;97175.94;3238629;22;20024;-89
2023/04/13 05:10:29;;;;;;;0.40;0.30;;;;;;;8.57;100.00;97181.19;3240780;22;20038;-89
2023/04/13 05:11:45;;;;;;;2.33;0.30;;;;;;;8.57;100.00;97181.19;3223434;23;20020;-90
2023/04/13 05:13:03;;;;;;;1.65;0.50;;;;;;;8.25;100.00;97180.69;3229841;22;20016;-88
2023/04/13 05:14:19;;;;;;;0.20;0.20;;;;;;;8.61;100.00;97188.00;3241927;22;20022;-89
2023/04/13 05:15:35;;;;;;;1.33;0.50;;;;;;;8.66;100.00;97178.22;3241433;22;20071;-92
2023/04/13 05:16:50;;;;;;;0.40;0.38;;;;;;;8.71;100.00;97185.84;3224940;23;20023;-91
2023/04/13 05:18:06;;;;;;;1.63;0.40;;;;;;;8.76;100.00;97181.28;3229690;22;20020;-81
2023/04/13 05:19:21;;;;;;;2.00;0.50;;;;;;;8.73;100.00;97187.50;3240216;22;20034;-81
2023/04/13 05:20:37;;;;;;;0.73;0.40;;;;;;;8.71;100.00;97199.75;3240077;22;20034;-82
2023/04/13 05:21:53;;;;;;;0.28;0.28;;;;;;;8.70;100.00;97197.22;3238404;22;20367;-81
2023/04/13 05:23:08;;;;;;;2.65;0.55;;;;;;;8.73;100.00;97199.69;3239985;22;20965;-81
2023/04/13 05:24:24;;;;;;;0.30;0.30;;;;;;;8.77;100.00;97198.63;3240368;22;20019;-81
2023/04/13 05:25:40;;;;;;;0.75;0.40;;;;;;;8.71;100.00;97204.94;3240145;22;20030;-81
2023/04/13 05:26:56;;;;;;;1.38;0.60;;;;;;;8.69;100.00;97206.78;3240232;22;20019;-81
2023/04/13 05:28:11;;;;;;;0.38;0.30;;;;;;;8.65;100.00;97209.56;3239337;22;20106;-82
2023/04/13 05:29:27;;;;;;;1.33;0.40;;;;;;;8.65;100.00;97223.47;3239606;22;20068;-81
2023/04/13 05:30:43;;;;;;;0.57;0.50;;;;;;;8.80;100.00;97215.94;3224781;23;20121;-81
2023/04/13 05:31:59;;;;;;;1.48;0.52;;;;;;;8.80;100.00;97222.03;3231286;22;20059;-81
2023/04/13 05:33:15;;;;;;;0.38;0.38;;;;;;;8.76;100.00;97223.03;3241430;22;20027;-82
2023/04/13 05:34:36;;;;;;;1.13;0.43;;;;;;;8.85;100.00;97222.69;3240098;22;20047;-82
2023/04/13 05:35:52;;;;;;;1.00;0.60;;;;;;;8.98;100.00;97217.78;3240377;22;20023;-81
2023/04/13 05:37:09;;;;;;;0.70;0.40;;;;;;;9.03;100.00;97220.22;3240164;22;20941;-81
2023/04/13 05:38:24;;;;;;;0.73;0.50;;;;;;;8.95;100.00;97222.31;3240368;22;20046;-82
2023/04/13 05:39:40;;;;;;;0.20;0.20;;;;;;;8.69;100.00;97221.59;3239988;22;20028;-81
2023/04/13 05:40:57;;;;;;;1.02;0.35;;;;;;;8.81;100.00;97225.47;3240192;22;20030;-81
2023/04/13 05:42:14;;;;;;;1.27;0.50;;;;;;;8.72;100.00;97230.13;3240373;22;20024;-81
2023/04/13 05:43:30;;;;;;;3.65;0.52;;;;;;;8.83;100.00;97223.63;3240460;22;20383;-81
2023/04/13 05:44:45;;;;;;;1.83;0.47;;;;;;;8.85;100.00;97227.03;3240384;22;20023;-81
2023/04/13 05:46:01;;;;;;;0.50;0.43;;;;;;;8.98;100.00;97228.22;3240524;22;20093;-81
2023/04/13 05:47:21;;;;;;;0.57;0.40;;;;;;;8.99;100.00;97229.09;3240107;22;20115;-81
2023/04/13 05:48:36;;;;;;;0.60;0.45;;;;;;;9.14;100.00;97230.19;3240949;22;20027;-81
2023/04/13 05:49:52;;;;;;;0.73;0.55;;;;;;;8.88;100.00;97238.22;3240446;22;20345;-81
2023/04/13 05:51:07;;;;;;;1.85;0.50;;;;;;;8.99;100.00;97231.72;3240418;22;20020;-81
2023/04/13 05:52:23;;;;;;;0.98;0.50;;;;;;;8.95;100.00;97240.59;3239850;22;20031;-81
2023/04/13 05:53:38;;;;;;;2.88;0.70;;;;;;;9.13;100.00;97226.75;3240144;22;20019;-81
2023/04/13 05:54:54;;;;;;;0.80;0.70;;;;;;;9.17;100.00;97223.09;3240801;22;20016;-80
2023/04/13 05:56:10;;;;;;;2.53;0.88;;;;;;;9.00;100.00;97228.19;3240540;22;20498;-81
2023/04/13 05:57:25;;;;;;;1.85;1.05;;;;;;;9.11;100.00;97230.34;3240092;22;20030;-81
2023/04/13 05:58:41;;;;;;;1.42;0.93;;;;;;;9.03;100.00;97231.53;3240196;22;20398;-81
2023/04/13 05:59:57;;;;;;;2.63;1.15;;;;;;;9.00;100.00;97230.78;3241554;22;20450;-81
2023/04/13 06:01:13;;;;;;;2.67;1.30;;;;;;;9.00;100.00;97236.00;3240399;22;20345;-81
2023/04/13 06:02:30;;;;;;;5.57;2.03;;;;;;;9.10;100.00;97231.25;3240219;22;20019;-81